createdAt,value
2022-08-03T00:02:32.985Z,6.03
2022-08-03T00:05:37.052Z,5.12
2022-08-03T00:08:40.299Z,6.72
2022-08-03T00:11:43.539Z,5.55
2022-08-03T00:14:46.214Z,8.88
2022-08-03T00:17:52.519Z,8.30
2022-08-03T00:20:57.455Z,8.20
2022-08-03T00:24:00.420Z,6.37
2022-08-03T00:27:03.101Z,6.15
2022-08-03T00:30:06.869Z,5.22
2022-08-03T00:33:10.915Z,6.63
2022-08-03T00:36:13.883Z,5.50
2022-08-03T00:39:18.001Z,4.85
2022-08-03T00:42:21.100Z,6.10
2022-08-03T00:45:32.582Z,5.55
2022-08-03T00:48:35.631Z,5.73
2022-08-03T00:51:38.893Z,5.93
2022-08-03T00:54:41.898Z,6.85
2022-08-03T00:57:45.380Z,5.40
2022-08-03T01:00:48.455Z,5.12
2022-08-03T01:03:51.241Z,5.50
2022-08-03T01:07:02.189Z,7.50
2022-08-03T01:10:51.027Z,4.78
2022-08-03T01:14:18.845Z,4.53
2022-08-03T01:17:35.867Z,5.12
2022-08-03T01:20:43.918Z,5.47
2022-08-03T01:23:59.927Z,5.45
2022-08-03T01:27:13.299Z,6.07
2022-08-03T01:30:17.206Z,6.57
2022-08-03T01:33:26.538Z,6.12
2022-08-03T01:36:39.115Z,5.30
2022-08-03T01:39:45.790Z,7.87
2022-08-03T01:42:51.297Z,6.00
2022-08-03T01:45:57.494Z,6.78
2022-08-03T01:49:09.160Z,8.07
2022-08-03T01:52:18.342Z,7.43
2022-08-03T01:55:24.645Z,5.90
2022-08-03T01:58:30.222Z,5.87
2022-08-03T02:02:16.116Z,5.22
2022-08-03T02:05:04.551Z,7.50
2022-08-03T02:08:11.331Z,6.60
2022-08-03T02:11:15.882Z,5.47
2022-08-03T02:14:21.694Z,5.62
2022-08-03T02:17:39.679Z,5.37
2022-08-03T02:20:44.951Z,6.85
2022-08-03T02:23:49.241Z,6.67
2022-08-03T02:26:56.048Z,6.68
2022-08-03T02:30:05.269Z,7.35
2022-08-03T02:33:14.631Z,5.40
2022-08-03T02:36:27.338Z,8.15
2022-08-03T02:39:32.926Z,6.50
2022-08-03T02:42:39.145Z,5.75
2022-08-03T02:45:46.364Z,6.65
2022-08-03T02:48:52.666Z,6.43
2022-08-03T02:51:57.996Z,6.37
2022-08-03T02:55:03.837Z,6.97
2022-08-03T02:58:10.087Z,7.10
2022-08-03T03:01:14.844Z,7.87
2022-08-03T03:04:19.552Z,5.62
2022-08-03T03:07:26.538Z,5.93
2022-08-03T03:10:31.959Z,6.03
2022-08-03T03:13:37.097Z,8.07
2022-08-03T03:16:41.868Z,5.70
2022-08-03T03:19:45.859Z,5.18
2022-08-03T03:22:52.503Z,6.37
2022-08-03T03:25:58.673Z,6.77
2022-08-03T03:29:02.546Z,7.03
2022-08-03T03:32:08.332Z,8.38
2022-08-03T03:35:15.064Z,8.20
2022-08-03T03:38:20.169Z,6.75
2022-08-03T03:41:22.834Z,7.00
2022-08-03T03:44:30.261Z,7.12
2022-08-03T03:47:34.485Z,11.35
2022-08-03T03:50:41.128Z,9.60
2022-08-03T03:54:00.704Z,9.50
2022-08-03T03:57:03.984Z,9.07
2022-08-03T04:00:07.655Z,7.47
2022-08-03T04:03:12.573Z,7.75
2022-08-03T04:06:34.182Z,7.07
2022-08-03T04:09:59.210Z,7.47
2022-08-03T04:13:15.957Z,7.00
2022-08-03T04:16:24.369Z,9.02
2022-08-03T04:19:43.541Z,8.07
2022-08-03T04:22:49.949Z,10.57
2022-08-03T04:25:54.868Z,7.43
2022-08-03T04:29:00.669Z,10.23
2022-08-03T04:32:06.974Z,10.77
2022-08-03T04:35:10.524Z,7.97
2022-08-03T04:38:16.239Z,9.48
2022-08-03T04:41:21.285Z,12.00
2022-08-03T04:44:28.301Z,10.43
2022-08-03T04:47:34.493Z,11.30
2022-08-03T04:50:37.464Z,11.43
2022-08-03T04:53:40.969Z,11.80
2022-08-03T04:56:44.348Z,12.40
2022-08-03T04:59:49.472Z,11.67
2022-08-03T05:02:52.317Z,12.27
2022-08-03T05:06:09.539Z,10.52
2022-08-03T05:09:12.830Z,11.02
2022-08-03T05:12:17.888Z,13.90
2022-08-03T05:15:20.919Z,10.20
2022-08-03T05:18:23.986Z,12.20
2022-08-03T05:21:26.724Z,9.73
2022-08-03T05:24:50.296Z,9.18
2022-08-03T05:27:53.043Z,9.55
2022-08-03T05:30:56.288Z,8.70
2022-08-03T05:33:58.998Z,8.75
2022-08-03T05:37:02.024Z,10.35
2022-08-03T05:40:05.479Z,7.85
2022-08-03T05:43:08.472Z,8.23
2022-08-03T05:46:12.334Z,8.93
2022-08-03T05:49:16.252Z,9.82
2022-08-03T05:52:18.943Z,8.77
2022-08-03T05:55:22.096Z,9.40
2022-08-03T05:58:24.976Z,9.98
2022-08-03T06:01:33.408Z,9.97
2022-08-03T06:04:36.489Z,9.10
2022-08-03T06:07:39.264Z,10.85
2022-08-03T06:10:42.295Z,8.88
2022-08-03T06:13:45.274Z,12.88
2022-08-03T06:16:49.460Z,11.53
2022-08-03T06:19:53.752Z,9.45
2022-08-03T06:23:00.446Z,9.95
2022-08-03T06:26:04.792Z,11.70
2022-08-03T06:29:09.925Z,8.73
2022-08-03T06:32:12.691Z,7.90
2022-08-03T06:35:16.499Z,9.80
2022-08-03T06:38:20.132Z,8.15
2022-08-03T06:41:23.092Z,8.40
2022-08-03T06:44:25.789Z,10.00
2022-08-03T06:47:29.768Z,10.03
2022-08-03T06:50:35.359Z,10.90
2022-08-03T06:53:38.366Z,9.48
2022-08-03T06:56:41.040Z,7.53
2022-08-03T07:00:07.339Z,13.25
2022-08-03T07:03:06.680Z,7.07
2022-08-03T07:06:09.921Z,12.70
2022-08-03T07:09:12.522Z,8.88
2022-08-03T07:12:15.683Z,6.75
2022-08-03T07:15:20.587Z,6.93
2022-08-03T07:18:41.666Z,7.77
2022-08-03T07:21:45.628Z,7.93
2022-08-03T07:24:48.637Z,7.60
2022-08-03T07:27:51.852Z,7.68
2022-08-03T07:30:55.177Z,9.45
2022-08-03T07:33:57.946Z,7.47
2022-08-03T07:37:01.045Z,8.40
2022-08-03T07:40:05.760Z,7.05
2022-08-03T07:43:08.806Z,6.68
2022-08-03T07:46:11.613Z,7.03
2022-08-03T07:49:14.941Z,7.50
2022-08-03T07:52:36.893Z,6.87
2022-08-03T07:55:41.086Z,6.80
2022-08-03T07:58:43.875Z,6.93
2022-08-03T08:01:46.984Z,6.97
2022-08-03T08:04:50.100Z,10.27
2022-08-03T08:07:52.792Z,6.93
2022-08-03T08:10:58.120Z,7.20
2022-08-03T08:14:04.093Z,7.45
2022-08-03T08:17:07.501Z,9.68
2022-08-03T08:20:12.627Z,6.83
2022-08-03T08:23:37.842Z,6.70
2022-08-03T08:26:38.668Z,9.80
2022-08-03T08:29:47.666Z,8.05
2022-08-03T08:32:59.155Z,7.25
2022-08-03T08:36:02.085Z,7.23
2022-08-03T08:39:04.856Z,9.38
2022-08-03T08:42:07.811Z,7.62
2022-08-03T08:45:12.200Z,7.65
2022-08-03T08:48:15.830Z,10.60
2022-08-03T08:51:20.851Z,7.07
2022-08-03T08:54:25.817Z,8.57
2022-08-03T08:57:42.727Z,6.47
2022-08-03T09:00:48.616Z,7.75
2022-08-03T09:03:53.529Z,6.87
2022-08-03T09:07:18.729Z,7.03
2022-08-03T09:10:22.208Z,8.13
2022-08-03T09:13:25.607Z,6.20
2022-08-03T09:16:28.299Z,8.60
2022-08-03T09:19:32.997Z,6.60
2022-08-03T09:22:36.191Z,7.73
2022-08-03T09:25:41.179Z,7.05
2022-08-03T09:29:01.681Z,6.30
2022-08-03T09:32:08.149Z,7.62
2022-08-03T09:35:11.860Z,8.30
2022-08-03T09:38:16.555Z,5.87
2022-08-03T09:41:19.863Z,6.40
2022-08-03T09:44:35.699Z,10.38
2022-08-03T09:47:44.919Z,7.05
2022-08-03T09:50:56.901Z,8.15
2022-08-03T09:54:32.219Z,7.20
2022-08-03T09:57:37.406Z,6.85
2022-08-03T10:01:23.644Z,6.65
2022-08-03T10:04:28.739Z,5.12
2022-08-03T10:07:45.888Z,7.07
2022-08-03T10:10:54.160Z,7.27
2022-08-03T10:13:58.015Z,5.45
2022-08-03T10:17:05.023Z,6.53
2022-08-03T10:20:09.640Z,8.20
2022-08-03T10:23:15.183Z,5.30
2022-08-03T10:26:22.756Z,5.47
2022-08-03T10:29:29.111Z,6.53
2022-08-03T10:32:35.508Z,7.05
2022-08-03T10:35:41.481Z,6.05
2022-08-03T10:38:52.832Z,5.60
2022-08-03T10:42:00.030Z,9.27
2022-08-03T10:45:09.218Z,5.75
2022-08-03T10:48:12.662Z,6.68
2022-08-03T10:51:16.084Z,5.45
2022-08-03T10:55:01.132Z,6.65
2022-08-03T10:58:10.851Z,5.17
2022-08-03T11:01:14.345Z,4.95
2022-08-03T11:04:19.600Z,6.37
2022-08-03T11:07:24.685Z,6.10
2022-08-03T11:10:32.137Z,5.65
2022-08-03T11:13:35.140Z,5.43
2022-08-03T11:16:47.979Z,6.47
2022-08-03T11:19:57.316Z,5.95
2022-08-03T11:23:01.879Z,6.07
2022-08-03T11:26:17.670Z,5.85
2022-08-03T11:29:31.882Z,5.23
2022-08-03T11:32:37.780Z,5.75
2022-08-03T11:35:59.312Z,5.95
2022-08-03T11:39:18.204Z,5.10
2022-08-03T11:42:27.656Z,6.25
2022-08-03T11:45:31.621Z,6.53
2022-08-03T11:48:37.466Z,7.30
2022-08-03T11:51:41.177Z,5.12
2022-08-03T11:54:44.938Z,5.15
2022-08-03T11:59:01.491Z,7.03
2022-08-03T12:01:12.709Z,6.07
2022-08-03T12:04:16.674Z,6.45
2022-08-03T12:07:25.892Z,5.28
2022-08-03T12:10:51.553Z,4.80
2022-08-03T12:14:44.751Z,5.93
2022-08-03T12:17:17.790Z,4.97
2022-08-03T12:20:34.793Z,6.32
2022-08-03T12:23:39.470Z,5.40
2022-08-03T12:26:59.560Z,5.85
2022-08-03T12:30:04.988Z,4.95
2022-08-03T12:33:25.154Z,5.83
2022-08-03T12:36:29.476Z,8.05
2022-08-03T12:39:32.327Z,5.82
2022-08-03T12:42:39.313Z,5.40
2022-08-03T12:45:43.233Z,5.43
2022-08-03T12:49:11.180Z,5.10
2022-08-03T12:52:14.680Z,5.05
2022-08-03T12:55:22.589Z,4.60
2022-08-03T12:58:36.138Z,4.80
2022-08-03T13:01:54.984Z,6.55
2022-08-03T13:04:59.582Z,4.53
2022-08-03T13:08:03.530Z,5.22
2022-08-03T13:11:50.587Z,5.07
2022-08-03T13:14:52.067Z,5.68
2022-08-03T13:17:59.554Z,5.60
2022-08-03T13:21:03.065Z,6.60
2022-08-03T13:24:06.039Z,4.93
2022-08-03T13:28:01.091Z,5.57
2022-08-03T13:30:34.310Z,4.50
2022-08-03T13:33:39.274Z,5.25
2022-08-03T13:37:07.418Z,6.00
2022-08-03T13:40:07.407Z,7.50
2022-08-03T13:43:10.287Z,6.35
2022-08-03T13:46:13.298Z,6.40
2022-08-03T13:49:17.012Z,5.40
2022-08-03T13:52:20.779Z,5.17
2022-08-03T13:55:24.243Z,5.12
2022-08-03T13:58:27.182Z,5.05
2022-08-03T14:01:54.390Z,4.50
2022-08-03T14:04:53.661Z,4.87
2022-08-03T14:07:56.833Z,5.23
2022-08-03T14:11:07.685Z,4.78
2022-08-03T14:14:10.503Z,5.22
2022-08-03T14:17:13.459Z,5.62
2022-08-03T14:20:38.084Z,4.90
2022-08-03T14:23:42.438Z,5.27
2022-08-03T14:26:45.140Z,4.82
2022-08-03T14:29:48.125Z,5.75
2022-08-03T14:32:50.741Z,6.60
2022-08-03T14:35:53.934Z,5.18
2022-08-03T14:39:01.069Z,4.57
2022-08-03T14:42:04.694Z,5.35
2022-08-03T14:45:09.573Z,4.68
2022-08-03T14:50:30.828Z,4.50
2022-08-03T14:51:51.318Z,5.95
2022-08-03T14:54:57.067Z,6.63
2022-08-03T14:58:02.728Z,5.20
2022-08-03T15:02:01.846Z,5.78
2022-08-03T15:04:30.612Z,5.37
2022-08-03T15:07:33.696Z,6.28
2022-08-03T15:10:44.180Z,5.97
2022-08-03T15:13:48.505Z,5.20
2022-08-03T15:16:51.742Z,6.10
2022-08-03T15:20:00.930Z,5.28
2022-08-03T15:23:18.739Z,5.45
2022-08-03T15:26:30.486Z,4.67
2022-08-03T15:30:06.739Z,5.62
2022-08-03T15:33:00.727Z,5.00
2022-08-03T15:36:04.946Z,5.82
2022-08-03T15:39:08.165Z,4.82
2022-08-03T15:42:10.904Z,4.07
2022-08-03T15:45:13.855Z,4.20
2022-08-03T15:48:26.424Z,5.15
2022-08-03T15:51:29.981Z,4.30
2022-08-03T15:54:32.657Z,4.15
2022-08-03T15:59:04.506Z,4.83
2022-08-03T16:00:58.573Z,4.28
2022-08-03T16:04:01.676Z,4.97
2022-08-03T16:07:04.474Z,4.30
2022-08-03T16:10:08.193Z,4.95
2022-08-03T16:13:10.944Z,4.63
2022-08-03T16:16:14.213Z,5.30
2022-08-03T16:19:16.897Z,5.18
2022-08-03T16:22:19.897Z,4.80
2022-08-03T16:25:25.867Z,4.07
2022-08-03T16:28:30.357Z,5.87
2022-08-03T16:31:33.053Z,4.93
2022-08-03T16:34:37.366Z,4.78
2022-08-03T16:37:41.103Z,4.87
2022-08-03T16:40:59.269Z,3.87
2022-08-03T16:44:04.377Z,4.43
2022-08-03T16:47:11.197Z,5.18
2022-08-03T16:50:25.204Z,4.57
2022-08-03T16:53:51.549Z,4.70
2022-08-03T16:56:50.800Z,4.65
2022-08-03T16:59:54.478Z,3.80
2022-08-03T17:03:01.311Z,4.68
2022-08-03T17:06:09.356Z,3.75
2022-08-03T17:09:20.884Z,4.90
2022-08-03T17:12:26.708Z,4.10
2022-08-03T17:15:38.313Z,3.93
2022-08-03T17:18:56.972Z,5.22
2022-08-03T17:22:09.271Z,5.20
2022-08-03T17:25:13.818Z,3.90
2022-08-03T17:28:51.423Z,3.80
2022-08-03T17:31:53.197Z,3.70
2022-08-03T17:34:56.351Z,5.95
2022-08-03T17:38:03.374Z,4.85
2022-08-03T17:41:10.878Z,3.58
2022-08-03T17:44:30.174Z,3.80
2022-08-03T17:47:42.342Z,3.83
2022-08-03T17:51:29.722Z,4.03
2022-08-03T17:55:55.231Z,3.97
2022-08-03T17:58:58.792Z,5.45
2022-08-03T18:02:51.489Z,4.43
2022-08-03T18:06:11.788Z,3.87
2022-08-03T18:10:06.067Z,4.55
2022-08-03T18:13:04.017Z,5.05
2022-08-03T18:16:20.540Z,6.10
2022-08-03T18:20:02.579Z,5.07
2022-08-03T18:22:50.106Z,5.43
2022-08-03T18:25:58.247Z,5.30
2022-08-03T18:29:03.251Z,11.80
2022-08-03T18:32:13.579Z,23.33
2022-08-03T18:35:20.932Z,7.55
2022-08-03T18:38:30.935Z,10.43
2022-08-03T18:41:36.706Z,6.47
2022-08-03T18:44:54.360Z,10.05
2022-08-03T18:48:23.232Z,8.25
2022-08-03T18:51:43.361Z,9.25
2022-08-03T18:55:02.345Z,8.43
2022-08-03T18:58:17.890Z,12.63
2022-08-03T19:01:57.823Z,7.97
2022-08-03T19:05:07.654Z,7.00
2022-08-03T19:08:20.675Z,7.40
2022-08-03T19:12:12.670Z,7.70
2022-08-03T19:15:12.402Z,10.13
2022-08-03T19:18:18.261Z,10.98
2022-08-03T19:21:21.842Z,7.62
2022-08-03T19:24:26.777Z,8.25
2022-08-03T19:27:32.116Z,7.53
2022-08-03T19:30:38.821Z,7.75
2022-08-03T19:33:55.945Z,6.53
2022-08-03T19:37:01.588Z,11.02
2022-08-03T19:40:10.961Z,12.18
2022-08-03T19:43:23.030Z,6.37
2022-08-03T19:46:31.105Z,8.45
2022-08-03T19:50:05.264Z,8.50
2022-08-03T19:53:07.564Z,8.45
2022-08-03T19:56:19.399Z,6.22
2022-08-03T19:59:24.089Z,8.97
2022-08-03T20:02:29.968Z,6.75
2022-08-03T20:05:44.970Z,9.90
2022-08-03T20:08:55.761Z,7.28
2022-08-03T20:12:02.791Z,7.47
2022-08-03T20:15:06.696Z,6.10
2022-08-03T20:18:16.659Z,5.97
2022-08-03T20:21:24.943Z,6.53
2022-08-03T20:24:34.448Z,5.78
2022-08-03T20:28:06.852Z,6.43
2022-08-03T20:31:25.228Z,5.10
2022-08-03T20:34:36.167Z,6.95
2022-08-03T20:37:39.161Z,7.07
2022-08-03T20:40:47.023Z,5.80
2022-08-03T20:43:51.070Z,5.90
2022-08-03T20:47:00.444Z,5.63
2022-08-03T20:50:07.480Z,8.68
2022-08-03T20:53:11.983Z,10.43
2022-08-03T20:56:15.933Z,10.13
2022-08-03T20:59:20.229Z,6.87
2022-08-03T21:02:29.926Z,8.87
2022-08-03T21:05:51.578Z,10.00
2022-08-03T21:09:04.263Z,6.62
2022-08-03T21:12:12.151Z,7.75
2022-08-03T21:16:06.597Z,7.70
2022-08-03T21:18:51.261Z,6.83
2022-08-03T21:21:55.589Z,8.43
2022-08-03T21:25:02.279Z,7.68
2022-08-03T21:28:10.145Z,6.80
2022-08-03T21:31:14.031Z,6.28
2022-08-03T21:34:17.807Z,7.03
2022-08-03T21:37:21.392Z,7.80
2022-08-03T21:40:24.675Z,5.80
2022-08-03T21:43:27.442Z,6.40
2022-08-03T21:46:36.682Z,5.90
2022-08-03T21:50:07.970Z,7.67
2022-08-03T21:53:07.070Z,5.40
2022-08-03T21:56:11.923Z,6.87
2022-08-03T21:59:20.107Z,8.55
2022-08-03T22:02:31.483Z,6.82
2022-08-03T22:05:43.729Z,7.70
2022-08-03T22:08:47.639Z,6.03
2022-08-03T22:11:54.318Z,6.65
2022-08-03T22:15:01.204Z,9.68
2022-08-03T22:18:06.093Z,7.40
2022-08-03T22:21:11.788Z,8.50
2022-08-03T22:24:19.085Z,6.78
2022-08-03T22:27:31.515Z,7.43
2022-08-03T22:30:34.844Z,7.15
2022-08-03T22:33:38.598Z,7.40
2022-08-03T22:36:42.469Z,11.13
2022-08-03T22:39:46.998Z,8.32
2022-08-03T22:42:52.751Z,7.32
2022-08-03T22:46:09.321Z,5.75
2022-08-03T22:49:16.535Z,7.37
2022-08-03T22:52:20.439Z,6.97
2022-08-03T22:55:26.058Z,6.72
2022-08-03T22:58:28.732Z,8.50
2022-08-03T23:01:43.128Z,13.15
2022-08-03T23:04:50.737Z,11.00
2022-08-03T23:07:53.842Z,8.27
2022-08-03T23:11:02.713Z,8.90
2022-08-03T23:14:15.429Z,9.20
2022-08-03T23:17:20.617Z,10.70
2022-08-03T23:20:26.475Z,10.60
2022-08-03T23:23:30.067Z,9.67
2022-08-03T23:26:48.244Z,9.05
2022-08-03T23:29:51.297Z,11.12
2022-08-03T23:32:55.001Z,9.88
2022-08-03T23:36:27.978Z,9.45
2022-08-03T23:39:34.852Z,10.43
2022-08-03T23:42:39.187Z,9.07
2022-08-03T23:45:45.276Z,13.80
2022-08-03T23:48:48.065Z,9.75
2022-08-03T23:51:51.028Z,10.23
2022-08-03T23:54:59.528Z,10.50
2022-08-03T23:58:21.691Z,11.18
